createdAt,value
2019-05-29T00:00:30.699Z,973.25
2019-05-29T00:01:30.723Z,973.34
2019-05-29T00:02:30.761Z,973.42
2019-05-29T00:03:30.719Z,973.32
2019-05-29T00:04:30.800Z,973.39
2019-05-29T00:05:30.834Z,973.39
2019-05-29T00:06:30.766Z,973.30
2019-05-29T00:07:30.810Z,973.36
2019-05-29T00:08:30.858Z,973.34
2019-05-29T00:09:30.796Z,973.41
2019-05-29T00:10:30.859Z,973.40
2019-05-29T00:11:30.892Z,973.32
2019-05-29T00:12:30.822Z,973.32
2019-05-29T00:13:30.867Z,973.38
2019-05-29T00:14:30.877Z,973.39
2019-05-29T00:15:30.842Z,973.33
2019-05-29T00:16:30.914Z,973.38
2019-05-29T00:17:30.954Z,973.40
2019-05-29T00:18:30.874Z,973.41
2019-05-29T00:19:30.916Z,973.44
2019-05-29T00:20:30.967Z,973.50
2019-05-29T00:21:30.888Z,973.48
2019-05-29T00:22:30.963Z,973.52
2019-05-29T00:23:31.002Z,973.51
2019-05-29T00:24:30.987Z,973.52
2019-05-29T00:25:30.953Z,973.54
2019-05-29T00:26:30.976Z,973.42
2019-05-29T00:27:30.939Z,973.46
2019-05-29T00:28:31.020Z,973.50
2019-05-29T00:29:31.038Z,973.49
2019-05-29T00:30:31.009Z,973.45
2019-05-29T00:31:31.031Z,973.47
2019-05-29T00:32:31.160Z,973.55
2019-05-29T00:33:31.114Z,973.47
2019-05-29T00:34:31.178Z,973.55
2019-05-29T00:35:31.155Z,973.47
2019-05-29T00:36:31.106Z,973.53
2019-05-29T00:37:31.161Z,973.59
2019-05-29T00:38:31.196Z,973.59
2019-05-29T00:39:31.159Z,973.57
2019-05-29T00:40:31.205Z,973.58
2019-05-29T00:41:31.226Z,973.54
2019-05-29T00:42:31.158Z,973.64
2019-05-29T00:43:31.224Z,973.69
2019-05-29T00:44:34.425Z,973.65
2019-05-29T00:45:31.234Z,973.70
2019-05-29T00:46:31.255Z,973.62
2019-05-29T00:47:31.280Z,973.65
2019-05-29T00:48:31.230Z,973.61
2019-05-29T00:49:31.274Z,973.68
2019-05-29T00:50:31.312Z,973.72
2019-05-29T00:51:31.256Z,973.69
2019-05-29T00:52:31.300Z,973.72
2019-05-29T00:53:31.283Z,973.70
2019-05-29T00:54:31.234Z,973.70
2019-05-29T00:55:31.275Z,973.74
2019-05-29T00:56:31.308Z,973.71
2019-05-29T00:57:31.249Z,973.72
2019-05-29T00:58:31.300Z,973.71
2019-05-29T00:59:31.301Z,973.76
2019-05-29T01:00:31.249Z,973.74
2019-05-29T01:01:31.316Z,973.64
2019-05-29T01:02:31.329Z,973.75
2019-05-29T01:03:31.253Z,973.70
2019-05-29T01:04:31.313Z,973.73
2019-05-29T01:05:31.324Z,973.74
2019-05-29T01:06:31.248Z,973.71
2019-05-29T01:07:31.297Z,973.66
2019-05-29T01:08:31.338Z,973.64
2019-05-29T01:09:31.273Z,973.69
2019-05-29T01:10:31.304Z,973.67
2019-05-29T01:11:31.287Z,973.69
2019-05-29T01:12:31.265Z,973.70
2019-05-29T01:13:31.301Z,973.76
2019-05-29T01:14:31.330Z,973.81
2019-05-29T01:15:31.268Z,973.75
2019-05-29T01:16:31.308Z,973.74
2019-05-29T01:17:31.309Z,973.74
2019-05-29T01:18:31.262Z,973.80
2019-05-29T01:19:31.344Z,973.79
2019-05-29T01:20:31.321Z,973.76
2019-05-29T01:21:31.288Z,973.76
2019-05-29T01:22:31.307Z,973.83
2019-05-29T01:23:31.333Z,973.78
2019-05-29T01:24:31.267Z,973.80
2019-05-29T01:25:31.290Z,973.76
2019-05-29T01:26:31.335Z,973.80
2019-05-29T01:27:31.288Z,973.82
2019-05-29T01:28:31.327Z,973.79
2019-05-29T01:29:31.346Z,973.83
2019-05-29T01:30:31.271Z,973.83
2019-05-29T01:31:31.316Z,973.83
2019-05-29T01:32:31.341Z,973.88
2019-05-29T01:33:31.286Z,973.84
2019-05-29T01:34:31.339Z,973.82
2019-05-29T01:35:31.314Z,973.84
2019-05-29T01:36:31.264Z,973.86
2019-05-29T01:37:31.306Z,973.88
2019-05-29T01:38:31.336Z,973.91
2019-05-29T01:39:31.323Z,973.81
2019-05-29T01:40:31.341Z,973.79
2019-05-29T01:41:31.297Z,973.80
2019-05-29T01:42:31.344Z,973.77
2019-05-29T01:43:31.321Z,973.76
2019-05-29T01:44:31.352Z,973.80
2019-05-29T01:45:31.309Z,973.82
2019-05-29T01:46:31.326Z,973.81
2019-05-29T01:47:31.307Z,973.82
2019-05-29T01:48:31.338Z,973.82
2019-05-29T01:49:31.329Z,973.87
2019-05-29T01:50:31.359Z,973.84
2019-05-29T01:51:31.302Z,973.89
2019-05-29T01:52:31.343Z,973.85
2019-05-29T01:53:31.341Z,973.85
2019-05-29T01:54:31.295Z,973.79
2019-05-29T01:55:31.330Z,973.89
2019-05-29T01:56:31.343Z,973.90
2019-05-29T01:57:31.302Z,973.84
2019-05-29T01:58:31.359Z,973.83
2019-05-29T01:59:31.362Z,973.89
2019-05-29T02:00:31.299Z,973.89
2019-05-29T02:01:31.341Z,973.99
2019-05-29T02:02:31.384Z,973.96
2019-05-29T02:03:31.387Z,973.96
2019-05-29T02:04:31.367Z,973.95
2019-05-29T02:05:31.368Z,973.94
2019-05-29T02:06:31.294Z,973.93
2019-05-29T02:07:31.342Z,973.96
2019-05-29T02:08:31.317Z,973.99
2019-05-29T02:09:31.398Z,973.92
2019-05-29T02:10:31.356Z,973.97
2019-05-29T02:11:32.284Z,973.99
2019-05-29T02:12:31.304Z,974.00
2019-05-29T02:13:31.340Z,974.02
2019-05-29T02:14:31.356Z,974.02
2019-05-29T02:15:32.599Z,974.05
2019-05-29T02:16:31.379Z,974.08
2019-05-29T02:17:31.394Z,973.99
2019-05-29T02:18:31.311Z,973.99
2019-05-29T02:19:31.363Z,974.03
2019-05-29T02:20:31.376Z,974.06
2019-05-29T02:21:31.321Z,974.10
2019-05-29T02:22:31.388Z,974.10
2019-05-29T02:23:31.415Z,974.13
2019-05-29T02:24:31.337Z,974.11
2019-05-29T02:25:31.384Z,974.12
2019-05-29T02:26:31.380Z,974.17
2019-05-29T02:27:31.406Z,974.11
2019-05-29T02:28:31.477Z,974.10
2019-05-29T02:29:31.448Z,974.15
2019-05-29T02:30:31.424Z,974.19
2019-05-29T02:31:31.468Z,974.18
2019-05-29T02:32:31.512Z,974.16
2019-05-29T02:33:31.457Z,974.17
2019-05-29T02:34:31.472Z,974.21
2019-05-29T02:35:31.566Z,974.23
2019-05-29T02:36:31.487Z,974.28
2019-05-29T02:37:31.532Z,974.34
2019-05-29T02:38:31.576Z,974.31
2019-05-29T02:39:31.531Z,974.24
2019-05-29T02:40:31.563Z,974.45
2019-05-29T02:41:31.551Z,974.32
2019-05-29T02:42:31.503Z,974.32
2019-05-29T02:43:31.544Z,974.38
2019-05-29T02:44:31.705Z,974.36
2019-05-29T02:45:52.783Z,974.38
2019-05-29T02:46:31.699Z,974.32
2019-05-29T02:47:31.634Z,974.37
2019-05-29T02:48:31.873Z,974.36
2019-05-29T02:49:31.677Z,974.41
2019-05-29T02:50:31.683Z,974.45
2019-05-29T02:51:31.669Z,974.44
2019-05-29T02:52:31.677Z,974.45
2019-05-29T02:53:31.690Z,974.49
2019-05-29T02:54:32.418Z,974.47
2019-05-29T02:55:31.665Z,974.47
2019-05-29T02:56:31.670Z,974.54
2019-05-29T02:57:31.702Z,974.46
2019-05-29T02:58:31.957Z,974.55
2019-05-29T02:59:32.057Z,974.48
2019-05-29T03:00:31.673Z,974.46
2019-05-29T03:01:31.875Z,974.48
2019-05-29T03:02:32.119Z,974.49
2019-05-29T03:03:37.974Z,974.48
2019-05-29T03:04:32.818Z,974.45
2019-05-29T03:05:32.074Z,974.53
2019-05-29T03:06:32.366Z,974.59
2019-05-29T03:07:32.811Z,974.52
2019-05-29T03:08:32.470Z,974.52
2019-05-29T03:09:32.609Z,974.50
2019-05-29T03:10:33.098Z,974.45
2019-05-29T03:11:33.353Z,974.53
2019-05-29T03:12:33.479Z,974.53
2019-05-29T03:13:32.255Z,974.62
2019-05-29T03:14:32.297Z,974.56
2019-05-29T03:15:31.739Z,974.65
2019-05-29T03:16:32.869Z,974.68
2019-05-29T03:17:32.005Z,974.63
2019-05-29T03:18:32.550Z,974.63
2019-05-29T03:19:32.528Z,974.61
2019-05-29T03:20:32.415Z,974.53
2019-05-29T03:21:32.458Z,974.62
2019-05-29T03:22:33.240Z,974.67
2019-05-29T03:23:33.936Z,974.66
2019-05-29T03:24:32.946Z,974.67
2019-05-29T03:25:32.598Z,974.69
2019-05-29T03:26:33.406Z,974.65
2019-05-29T03:27:32.040Z,974.64
2019-05-29T03:28:32.404Z,974.66
2019-05-29T03:29:32.003Z,974.66
2019-05-29T03:30:37.381Z,974.76
2019-05-29T03:31:38.193Z,974.69
2019-05-29T03:32:37.673Z,974.83
2019-05-29T03:33:39.312Z,974.77
2019-05-29T03:34:37.681Z,974.73
2019-05-29T03:35:39.687Z,974.81
2019-05-29T03:36:38.438Z,974.74
2019-05-29T03:37:32.474Z,974.74
2019-05-29T03:38:32.718Z,974.81
2019-05-29T03:39:32.354Z,974.83
2019-05-29T03:40:33.270Z,974.82
2019-05-29T03:41:32.724Z,974.72
2019-05-29T03:42:32.598Z,974.79
2019-05-29T03:43:33.144Z,974.80
2019-05-29T03:44:33.213Z,974.85
2019-05-29T03:45:34.028Z,974.81
2019-05-29T03:46:41.091Z,974.82
2019-05-29T03:47:33.156Z,974.71
2019-05-29T03:48:32.828Z,974.82
2019-05-29T03:49:33.161Z,974.87
2019-05-29T03:50:33.316Z,974.86
2019-05-29T03:51:32.686Z,974.85
2019-05-29T03:52:32.704Z,974.90
2019-05-29T03:53:33.332Z,974.89
2019-05-29T03:54:33.783Z,974.97
2019-05-29T03:55:33.551Z,975.02
2019-05-29T03:56:32.594Z,975.02
2019-05-29T03:57:33.707Z,974.99
2019-05-29T03:58:33.232Z,974.99
2019-05-29T03:59:32.704Z,975.00
2019-05-29T04:00:41.346Z,975.06
2019-05-29T04:01:33.242Z,975.09
2019-05-29T04:02:33.265Z,975.14
2019-05-29T04:03:33.351Z,975.10
2019-05-29T04:04:33.399Z,975.06
2019-05-29T04:05:33.426Z,975.08
2019-05-29T04:06:33.396Z,975.13
2019-05-29T04:07:33.527Z,975.14
2019-05-29T04:08:33.462Z,975.14
2019-05-29T04:09:33.301Z,975.23
2019-05-29T04:10:34.637Z,975.26
2019-05-29T04:11:33.170Z,975.21
2019-05-29T04:12:33.379Z,975.17
2019-05-29T04:13:33.389Z,975.18
2019-05-29T04:14:33.371Z,975.21
2019-05-29T04:15:33.533Z,975.25
2019-05-29T04:16:50.968Z,975.25
2019-05-29T04:17:33.446Z,975.18
2019-05-29T04:18:33.691Z,975.22
2019-05-29T04:19:32.641Z,975.30
2019-05-29T04:20:33.188Z,975.27
2019-05-29T04:21:32.279Z,975.25
2019-05-29T04:22:32.881Z,975.33
2019-05-29T04:23:32.155Z,975.25
2019-05-29T04:24:31.995Z,975.32
2019-05-29T04:25:35.424Z,975.28
2019-05-29T04:26:32.281Z,975.37
2019-05-29T04:27:32.094Z,975.32
2019-05-29T04:28:32.352Z,975.37
2019-05-29T04:29:32.095Z,975.42
2019-05-29T04:30:32.095Z,975.29
2019-05-29T04:31:32.526Z,975.37
2019-05-29T04:32:32.271Z,975.31
2019-05-29T04:33:32.645Z,975.37
2019-05-29T04:34:33.801Z,975.37
2019-05-29T04:35:32.570Z,975.37
2019-05-29T04:36:32.918Z,975.43
2019-05-29T04:37:32.579Z,975.35
2019-05-29T04:38:33.350Z,975.36
2019-05-29T04:39:32.754Z,975.43
2019-05-29T04:40:32.707Z,975.40
2019-05-29T04:41:32.785Z,975.44
2019-05-29T04:42:33.518Z,975.44
2019-05-29T04:43:33.341Z,975.43
2019-05-29T04:44:33.270Z,975.51
2019-05-29T04:45:33.319Z,975.48
2019-05-29T04:46:31.962Z,975.58
2019-05-29T04:47:33.323Z,975.52
2019-05-29T04:48:33.509Z,975.56
2019-05-29T04:49:33.666Z,975.67
2019-05-29T04:50:33.455Z,975.63
2019-05-29T04:51:33.085Z,975.54
2019-05-29T04:52:33.579Z,975.57
2019-05-29T04:53:33.501Z,975.63
2019-05-29T04:54:33.351Z,975.56
2019-05-29T04:55:32.740Z,975.62
2019-05-29T04:56:32.790Z,975.65
2019-05-29T04:57:32.856Z,975.63
2019-05-29T04:58:32.842Z,975.70
2019-05-29T04:59:33.037Z,975.70
2019-05-29T05:00:33.066Z,975.75
2019-05-29T05:01:33.019Z,975.74
2019-05-29T05:02:33.024Z,975.69
2019-05-29T05:03:33.107Z,975.82
2019-05-29T05:04:33.138Z,975.73
2019-05-29T05:05:33.162Z,975.69
2019-05-29T05:06:33.016Z,975.78
2019-05-29T05:07:33.150Z,975.77
2019-05-29T05:08:33.233Z,975.82
2019-05-29T05:09:33.290Z,975.83
2019-05-29T05:10:33.320Z,975.74
2019-05-29T05:11:33.318Z,975.80
2019-05-29T05:12:32.120Z,975.78
2019-05-29T05:13:32.134Z,975.74
2019-05-29T05:14:32.165Z,975.74
2019-05-29T05:15:32.147Z,975.78
2019-05-29T05:16:32.179Z,975.76
2019-05-29T05:17:32.216Z,975.74
2019-05-29T05:18:32.193Z,975.74
2019-05-29T05:19:32.216Z,975.80
2019-05-29T05:20:32.255Z,975.83
2019-05-29T05:21:32.208Z,975.82
2019-05-29T05:22:32.248Z,975.83
2019-05-29T05:23:32.302Z,975.91
2019-05-29T05:24:32.237Z,975.87
2019-05-29T05:25:32.283Z,975.92
2019-05-29T05:26:32.345Z,975.86
2019-05-29T05:27:32.298Z,975.90
2019-05-29T05:28:32.311Z,975.93
2019-05-29T05:29:32.311Z,975.88
2019-05-29T05:30:32.422Z,975.96
2019-05-29T05:31:32.422Z,975.93
2019-05-29T05:32:32.623Z,976.00
2019-05-29T05:33:32.451Z,975.96
2019-05-29T05:34:32.631Z,976.03
2019-05-29T05:35:32.695Z,975.91
2019-05-29T05:36:32.685Z,975.98
2019-05-29T05:37:32.716Z,976.04
2019-05-29T05:38:32.632Z,976.03
2019-05-29T05:39:32.798Z,976.05
2019-05-29T05:40:33.035Z,976.04
2019-05-29T05:41:32.690Z,976.08
2019-05-29T05:42:32.889Z,976.05
2019-05-29T05:43:32.893Z,975.98
2019-05-29T05:44:32.848Z,976.06
2019-05-29T05:45:32.999Z,976.00
2019-05-29T05:46:32.942Z,976.05
2019-05-29T05:47:44.947Z,975.98
2019-05-29T05:48:33.007Z,976.09
2019-05-29T05:49:33.208Z,976.02
2019-05-29T05:50:33.297Z,976.15
2019-05-29T05:51:33.449Z,976.10
2019-05-29T05:52:33.667Z,976.18
2019-05-29T05:53:33.363Z,976.14
2019-05-29T05:54:33.387Z,976.17
2019-05-29T05:55:33.486Z,976.25
2019-05-29T05:56:33.674Z,976.19
2019-05-29T05:57:33.532Z,976.19
2019-05-29T05:58:33.658Z,976.14
2019-05-29T05:59:33.525Z,976.20
2019-05-29T06:00:33.819Z,976.19
2019-05-29T06:01:33.685Z,976.21
2019-05-29T06:02:33.647Z,976.24
2019-05-29T06:03:33.830Z,976.27
2019-05-29T06:04:33.616Z,976.14
2019-05-29T06:05:33.866Z,976.18
2019-05-29T06:06:32.441Z,976.20
2019-05-29T06:07:32.488Z,976.26
2019-05-29T06:08:32.520Z,976.20
2019-05-29T06:09:32.718Z,976.20
2019-05-29T06:10:32.490Z,976.28
2019-05-29T06:11:32.505Z,976.18
2019-05-29T06:12:32.454Z,976.21
2019-05-29T06:13:32.484Z,976.24
2019-05-29T06:14:32.534Z,976.21
2019-05-29T06:15:32.488Z,976.17
2019-05-29T06:16:32.958Z,976.19
2019-05-29T06:17:32.508Z,976.25
2019-05-29T06:18:32.462Z,976.28
2019-05-29T06:19:32.742Z,976.26
2019-05-29T06:20:32.680Z,976.34
2019-05-29T06:21:32.567Z,976.28
2019-05-29T06:22:32.900Z,976.33
2019-05-29T06:23:32.797Z,976.27
2019-05-29T06:24:33.407Z,976.37
2019-05-29T06:25:33.861Z,976.34
2019-05-29T06:26:32.849Z,976.33
2019-05-29T06:27:33.530Z,976.35
2019-05-29T06:28:33.023Z,976.38
2019-05-29T06:29:33.506Z,976.40
2019-05-29T06:30:34.056Z,976.41
2019-05-29T06:31:33.318Z,976.42
2019-05-29T06:32:33.435Z,976.44
2019-05-29T06:33:33.408Z,976.38
2019-05-29T06:34:33.507Z,976.44
2019-05-29T06:35:34.015Z,976.46
2019-05-29T06:36:33.442Z,976.48
2019-05-29T06:37:33.630Z,976.44
2019-05-29T06:38:33.593Z,976.41
2019-05-29T06:39:33.486Z,976.48
2019-05-29T06:40:33.928Z,976.41
2019-05-29T06:41:33.560Z,976.44
2019-05-29T06:42:33.521Z,976.45
2019-05-29T06:43:33.731Z,976.48
2019-05-29T06:44:34.143Z,976.47
2019-05-29T06:45:33.663Z,976.55
2019-05-29T06:46:34.220Z,976.55
2019-05-29T06:47:34.129Z,976.62
2019-05-29T06:48:44.774Z,976.61
2019-05-29T06:49:32.505Z,976.60
2019-05-29T06:50:32.570Z,976.65
2019-05-29T06:51:32.554Z,976.65
2019-05-29T06:52:32.523Z,976.69
2019-05-29T06:53:32.532Z,976.70
2019-05-29T06:54:32.483Z,976.74
2019-05-29T06:55:32.540Z,976.67
2019-05-29T06:56:32.557Z,976.77
2019-05-29T06:57:32.498Z,976.75
2019-05-29T06:58:32.530Z,976.77
2019-05-29T06:59:32.516Z,976.78
2019-05-29T07:00:35.558Z,976.87
2019-05-29T07:01:32.523Z,976.71
2019-05-29T07:02:32.569Z,976.77
2019-05-29T07:03:32.497Z,976.75
2019-05-29T07:04:32.522Z,976.79
2019-05-29T07:05:32.520Z,976.75
2019-05-29T07:06:32.492Z,976.76
2019-05-29T07:07:32.530Z,976.85
2019-05-29T07:08:39.103Z,976.94
2019-05-29T07:09:32.563Z,976.83
2019-05-29T07:10:32.528Z,976.85
2019-05-29T07:11:32.571Z,976.87
2019-05-29T07:12:32.494Z,976.94
2019-05-29T07:13:35.114Z,976.89
2019-05-29T07:14:32.580Z,976.90
2019-05-29T07:15:32.515Z,976.81
2019-05-29T07:16:43.877Z,976.92
2019-05-29T07:17:32.527Z,976.98
2019-05-29T07:18:32.577Z,976.96
2019-05-29T07:19:47.405Z,977.02
2019-05-29T07:20:32.582Z,976.95
2019-05-29T07:21:32.556Z,976.99
2019-05-29T07:22:32.558Z,977.05
2019-05-29T07:23:32.542Z,977.05
2019-05-29T07:24:32.501Z,977.05
2019-05-29T07:25:32.542Z,977.05
2019-05-29T07:26:32.593Z,977.00
2019-05-29T07:27:32.518Z,977.11
2019-05-29T07:28:32.549Z,977.09
2019-05-29T07:29:32.538Z,977.13
2019-05-29T07:30:32.508Z,977.11
2019-05-29T07:31:32.542Z,977.04
2019-05-29T07:32:32.579Z,977.14
2019-05-29T07:33:32.539Z,977.16
2019-05-29T07:34:49.924Z,977.21
2019-05-29T07:35:32.538Z,977.20
2019-05-29T07:36:32.528Z,977.19
2019-05-29T07:37:32.596Z,977.23
2019-05-29T07:38:32.552Z,977.22
2019-05-29T07:39:32.557Z,977.23
2019-05-29T07:40:35.709Z,977.16
2019-05-29T07:41:32.593Z,977.14
2019-05-29T07:42:32.515Z,977.20
2019-05-29T07:43:32.564Z,977.21
2019-05-29T07:44:32.626Z,977.23
2019-05-29T07:45:32.537Z,977.21
2019-05-29T07:46:32.537Z,977.18
2019-05-29T07:47:32.623Z,977.29
2019-05-29T07:48:32.544Z,977.31
2019-05-29T07:49:39.153Z,977.24
2019-05-29T07:50:32.567Z,977.36
2019-05-29T07:51:32.637Z,977.29
2019-05-29T07:52:32.585Z,977.25
2019-05-29T07:53:33.751Z,977.33
2019-05-29T07:54:32.569Z,977.34
2019-05-29T07:55:32.569Z,977.36
2019-05-29T07:56:32.619Z,977.33
2019-05-29T07:57:32.550Z,977.37
2019-05-29T07:58:32.573Z,977.37
2019-05-29T07:59:32.606Z,977.46
2019-05-29T08:00:35.568Z,977.44
2019-05-29T08:01:32.580Z,977.46
2019-05-29T08:02:32.586Z,977.36
2019-05-29T08:03:32.554Z,977.41
2019-05-29T08:04:32.578Z,977.44
2019-05-29T08:05:32.623Z,977.52
2019-05-29T08:06:32.616Z,977.51
2019-05-29T08:07:32.597Z,977.48
2019-05-29T08:08:32.599Z,977.46
2019-05-29T08:09:32.541Z,977.47
2019-05-29T08:10:32.580Z,977.52
2019-05-29T08:11:32.620Z,977.57
2019-05-29T08:12:32.558Z,977.48
2019-05-29T08:13:32.588Z,977.52
2019-05-29T08:14:32.640Z,977.63
2019-05-29T08:15:32.534Z,977.66
2019-05-29T08:16:32.569Z,977.62
2019-05-29T08:17:32.609Z,977.66
2019-05-29T08:18:32.568Z,977.67
2019-05-29T08:19:32.593Z,977.54
2019-05-29T08:20:32.583Z,977.66
2019-05-29T08:21:32.557Z,977.68
2019-05-29T08:22:34.538Z,977.74
2019-05-29T08:23:32.644Z,977.70
2019-05-29T08:24:32.571Z,977.71
2019-05-29T08:25:32.594Z,977.66
2019-05-29T08:26:32.633Z,977.66
2019-05-29T08:27:32.594Z,977.71
2019-05-29T08:28:32.620Z,977.70
2019-05-29T08:29:32.685Z,977.76
2019-05-29T08:30:36.203Z,977.69
2019-05-29T08:31:32.634Z,977.73
2019-05-29T08:32:32.653Z,977.76
2019-05-29T08:33:32.640Z,977.83
2019-05-29T08:34:32.657Z,977.70
2019-05-29T08:35:32.671Z,977.77
2019-05-29T08:36:32.636Z,977.88
2019-05-29T08:37:32.646Z,977.87
2019-05-29T08:38:32.695Z,977.88
2019-05-29T08:39:36.659Z,977.84
2019-05-29T08:40:32.653Z,977.89
2019-05-29T08:41:32.702Z,977.82
2019-05-29T08:42:32.632Z,977.76
2019-05-29T08:43:32.646Z,977.79
2019-05-29T08:44:32.684Z,977.85
2019-05-29T08:45:32.623Z,977.92
2019-05-29T08:46:33.479Z,977.79
2019-05-29T08:47:32.661Z,977.80
2019-05-29T08:48:32.612Z,977.85
2019-05-29T08:49:32.666Z,977.92
2019-05-29T08:50:32.658Z,977.86
2019-05-29T08:51:32.626Z,977.90
2019-05-29T08:52:32.666Z,977.81
2019-05-29T08:53:32.700Z,977.86
2019-05-29T08:54:33.333Z,977.90
2019-05-29T08:55:32.657Z,977.85
2019-05-29T08:56:32.673Z,977.89
2019-05-29T08:57:32.691Z,977.96
2019-05-29T08:58:32.654Z,977.91
2019-05-29T08:59:32.690Z,977.93
2019-05-29T09:00:32.628Z,978.00
2019-05-29T09:01:32.673Z,977.91
2019-05-29T09:02:32.701Z,978.00
2019-05-29T09:03:32.662Z,978.04
2019-05-29T09:04:32.813Z,977.95
2019-05-29T09:05:32.708Z,978.04
2019-05-29T09:06:32.636Z,978.04
2019-05-29T09:07:32.677Z,978.09
2019-05-29T09:08:32.709Z,977.97
2019-05-29T09:09:32.622Z,978.17
2019-05-29T09:10:32.681Z,978.13
2019-05-29T09:11:32.700Z,978.11
2019-05-29T09:12:32.671Z,978.09
2019-05-29T09:13:32.681Z,978.11
2019-05-29T09:14:32.718Z,978.14
2019-05-29T09:15:32.670Z,978.08
2019-05-29T09:16:32.661Z,978.18
2019-05-29T09:17:34.540Z,978.12
2019-05-29T09:18:32.721Z,978.13
2019-05-29T09:19:32.711Z,978.11
2019-05-29T09:20:57.881Z,978.17
2019-05-29T09:21:32.695Z,978.13
2019-05-29T09:22:32.684Z,978.20
2019-05-29T09:23:32.743Z,978.16
2019-05-29T09:24:32.708Z,978.16
2019-05-29T09:25:32.684Z,978.20
2019-05-29T09:26:32.725Z,978.07
2019-05-29T09:27:32.641Z,978.13
2019-05-29T09:28:32.704Z,978.20
2019-05-29T09:29:32.711Z,978.22
2019-05-29T09:30:32.652Z,978.18
2019-05-29T09:31:32.681Z,978.20
2019-05-29T09:33:32.719Z,978.17
2019-05-29T09:34:32.695Z,978.19
2019-05-29T09:35:32.714Z,978.23
2019-05-29T09:36:32.691Z,978.18
2019-05-29T09:37:32.686Z,978.22
2019-05-29T09:38:32.730Z,978.25
2019-05-29T09:39:32.742Z,978.22
2019-05-29T09:40:32.706Z,978.17
2019-05-29T09:41:32.727Z,978.27
2019-05-29T09:42:32.719Z,978.29
2019-05-29T09:43:32.694Z,978.25
2019-05-29T09:44:38.951Z,978.25
2019-05-29T09:45:32.675Z,978.19
2019-05-29T09:46:32.745Z,978.32
2019-05-29T09:47:32.692Z,978.26
2019-05-29T09:48:48.550Z,978.27
2019-05-29T09:49:32.707Z,978.35
2019-05-29T09:50:48.766Z,978.37
2019-05-29T09:51:32.701Z,978.40
2019-05-29T09:52:32.733Z,978.31
2019-05-29T09:53:32.699Z,978.30
2019-05-29T09:54:32.842Z,978.33
2019-05-29T09:55:32.710Z,978.35
2019-05-29T09:56:32.737Z,978.38
2019-05-29T09:57:32.684Z,978.40
2019-05-29T09:58:32.730Z,978.35
2019-05-29T09:59:32.741Z,978.38
2019-05-29T10:00:32.727Z,978.34
2019-05-29T10:01:32.720Z,978.44
2019-05-29T10:02:32.742Z,978.40
2019-05-29T10:03:32.775Z,978.33
2019-05-29T10:04:32.726Z,978.43
2019-05-29T10:05:32.739Z,978.40
2019-05-29T10:06:32.746Z,978.49
2019-05-29T10:07:32.704Z,978.49
2019-05-29T10:08:32.704Z,978.45
2019-05-29T10:09:32.692Z,978.42
2019-05-29T10:10:32.746Z,978.47
2019-05-29T10:11:32.718Z,978.51
2019-05-29T10:12:32.687Z,978.54
2019-05-29T10:13:32.727Z,978.52
2019-05-29T10:14:32.778Z,978.40
2019-05-29T10:15:32.707Z,978.55
2019-05-29T10:16:32.749Z,978.41
2019-05-29T10:17:32.768Z,978.60
2019-05-29T10:18:33.059Z,978.62
2019-05-29T10:19:32.733Z,978.67
2019-05-29T10:20:32.740Z,978.58
2019-05-29T10:21:40.221Z,978.60
2019-05-29T10:22:32.748Z,978.56
2019-05-29T10:23:32.764Z,978.63
2019-05-29T10:24:32.732Z,978.53
2019-05-29T10:25:32.735Z,978.60
2019-05-29T10:26:32.772Z,978.62
2019-05-29T10:27:32.718Z,978.61
2019-05-29T10:28:49.303Z,978.59
2019-05-29T10:29:32.731Z,978.62
2019-05-29T10:30:32.805Z,978.63
2019-05-29T10:31:32.750Z,978.67
2019-05-29T10:32:32.750Z,978.68
2019-05-29T10:33:32.720Z,978.57
2019-05-29T10:34:32.762Z,978.65
2019-05-29T10:35:32.786Z,978.73
2019-05-29T10:36:32.770Z,978.67
2019-05-29T10:37:32.749Z,978.68
2019-05-29T10:38:32.776Z,978.71
2019-05-29T10:39:32.765Z,978.67
2019-05-29T10:40:32.761Z,978.73
2019-05-29T10:41:32.776Z,978.71
2019-05-29T10:42:32.772Z,978.72
2019-05-29T10:43:34.459Z,978.65
2019-05-29T10:44:32.769Z,978.73
2019-05-29T10:45:32.771Z,978.73
2019-05-29T10:46:32.758Z,978.71
2019-05-29T10:47:32.777Z,978.77
2019-05-29T10:48:32.750Z,978.82
2019-05-29T10:49:32.755Z,978.75
2019-05-29T10:50:32.789Z,978.72
2019-05-29T10:51:32.758Z,978.76
2019-05-29T10:52:32.771Z,978.87
2019-05-29T10:53:32.780Z,978.82
2019-05-29T10:54:32.772Z,978.72
2019-05-29T10:55:32.751Z,978.79
2019-05-29T10:56:32.793Z,978.81
2019-05-29T10:57:32.802Z,978.79
2019-05-29T10:58:48.003Z,978.77
2019-05-29T10:59:32.805Z,978.79
2019-05-29T11:00:32.806Z,978.78
2019-05-29T11:01:32.781Z,978.75
2019-05-29T11:02:32.792Z,978.77
2019-05-29T11:03:32.753Z,978.77
2019-05-29T11:04:32.780Z,978.78
2019-05-29T11:05:33.135Z,978.84
2019-05-29T11:06:32.735Z,978.70
2019-05-29T11:07:33.149Z,978.74
2019-05-29T11:08:32.756Z,978.79
2019-05-29T11:09:43.851Z,978.70
2019-05-29T11:10:32.797Z,978.79
2019-05-29T11:11:32.809Z,978.82
2019-05-29T11:12:32.807Z,978.81
2019-05-29T11:13:32.763Z,978.83
2019-05-29T11:14:32.794Z,978.89
2019-05-29T11:15:32.781Z,978.60
2019-05-29T11:16:32.789Z,978.83
2019-05-29T11:17:33.007Z,978.78
2019-05-29T11:18:32.742Z,978.82
2019-05-29T11:19:32.766Z,978.73
2019-05-29T11:20:32.795Z,978.80
2019-05-29T11:21:32.826Z,978.81
2019-05-29T11:22:34.282Z,978.79
2019-05-29T11:23:32.773Z,978.75
2019-05-29T11:24:32.825Z,978.77
2019-05-29T11:25:32.784Z,978.74
2019-05-29T11:26:32.800Z,978.83
2019-05-29T11:27:32.828Z,978.81
2019-05-29T11:28:32.819Z,978.77
2019-05-29T11:29:32.815Z,978.86
2019-05-29T11:30:32.801Z,978.83
2019-05-29T11:31:32.820Z,978.83
2019-05-29T11:32:32.871Z,978.81
2019-05-29T11:33:32.774Z,978.80
2019-05-29T11:34:32.817Z,978.82
2019-05-29T11:35:32.821Z,978.77
2019-05-29T11:36:32.771Z,978.85
2019-05-29T11:37:32.813Z,978.80
2019-05-29T11:38:32.803Z,978.85
2019-05-29T11:39:32.843Z,978.85
2019-05-29T11:40:32.857Z,978.90
2019-05-29T11:41:32.833Z,978.83
2019-05-29T11:42:32.764Z,978.91
2019-05-29T11:43:32.807Z,978.91
2019-05-29T11:44:32.816Z,978.92
2019-05-29T11:45:35.331Z,978.83
2019-05-29T11:46:32.826Z,978.89
2019-05-29T11:47:32.811Z,978.92
2019-05-29T11:48:32.805Z,978.93
2019-05-29T11:49:32.804Z,978.90
2019-05-29T11:50:32.821Z,978.92
2019-05-29T11:51:32.774Z,978.96
2019-05-29T11:52:42.391Z,978.96
2019-05-29T11:53:34.016Z,978.86
2019-05-29T11:54:32.860Z,978.86
2019-05-29T11:55:32.802Z,978.92
2019-05-29T11:56:32.843Z,978.93
2019-05-29T11:57:32.907Z,978.90
2019-05-29T11:58:32.815Z,978.94
2019-05-29T11:59:32.812Z,978.88
2019-05-29T12:00:32.834Z,978.92
2019-05-29T12:01:49.214Z,978.88
2019-05-29T12:02:32.882Z,978.90
2019-05-29T12:03:32.863Z,978.92
2019-05-29T12:04:32.831Z,978.92
2019-05-29T12:05:32.822Z,978.96
2019-05-29T12:06:32.833Z,978.92
2019-05-29T12:07:32.814Z,978.90
2019-05-29T12:08:32.844Z,979.01
2019-05-29T12:09:33.722Z,978.90
2019-05-29T12:10:32.828Z,978.98
2019-05-29T12:11:32.811Z,978.93
2019-05-29T12:12:32.784Z,978.98
2019-05-29T12:13:32.825Z,978.93
2019-05-29T12:14:32.835Z,978.87
2019-05-29T12:15:32.865Z,978.98
2019-05-29T12:16:32.830Z,978.99
2019-05-29T12:17:32.927Z,978.94
2019-05-29T12:18:32.790Z,978.91
2019-05-29T12:19:32.827Z,978.94
2019-05-29T12:20:32.843Z,978.93
2019-05-29T12:21:32.825Z,978.93
2019-05-29T12:22:32.854Z,978.91
2019-05-29T12:23:32.854Z,978.97
2019-05-29T12:24:32.835Z,978.90
2019-05-29T12:25:32.832Z,978.93
2019-05-29T12:26:32.850Z,978.87
2019-05-29T12:27:32.891Z,978.94
2019-05-29T12:28:32.856Z,978.99
2019-05-29T12:29:32.866Z,979.05